sensor_id;sensor_type;location;lat;lon;timestamp;pressure;altitude;pressure_sealevel;temperature;humidity
7940;BME280;4015;48.888;9.226;2023-07-24T00:01:51;159846.34;;;18.31;92.72
7940;BME280;4015;48.888;9.226;2023-07-24T00:04:16;159823.22;;;18.22;93.15
7940;BME280;4015;48.888;9.226;2023-07-24T00:06:42;159750.13;;;17.93;93.92
7940;BME280;4015;48.888;9.226;2023-07-24T00:09:07;159757.78;;;17.96;95.51
7940;BME280;4015;48.888;9.226;2023-07-24T00:11:32;159762.97;;;17.98;96.10
7940;BME280;4015;48.888;9.226;2023-07-24T00:13:58;159741.13;;;17.90;97.46
7940;BME280;4015;48.888;9.226;2023-07-24T00:16:23;159720.59;;;17.82;97.07
7940;BME280;4015;48.888;9.226;2023-07-24T00:18:48;159656.41;;;17.56;95.47
7940;BME280;4015;48.888;9.226;2023-07-24T00:21:14;159633.28;;;17.47;97.04
7940;BME280;4015;48.888;9.226;2023-07-24T00:23:39;159614.06;;;17.39;98.18
7940;BME280;4015;48.888;9.226;2023-07-24T00:26:04;159665.38;;;17.60;99.75
7940;BME280;4015;48.888;9.226;2023-07-24T00:28:30;159689.75;;;17.69;100.00
7940;BME280;4015;48.888;9.226;2023-07-24T00:30:55;159646.13;;;17.52;100.00
7940;BME280;4015;48.888;9.226;2023-07-24T00:33:21;159633.28;;;17.47;100.00
7940;BME280;4015;48.888;9.226;2023-07-24T00:35:46;159660.25;;;17.58;100.00
7940;BME280;4015;48.888;9.226;2023-07-24T00:38:12;159656.41;;;17.56;100.00
7940;BME280;4015;48.888;9.226;2023-07-24T00:40:37;159642.28;;;17.50;100.00
7940;BME280;4015;48.888;9.226;2023-07-24T00:43:03;159605.13;;;17.36;100.00
7940;BME280;4015;48.888;9.226;2023-07-24T00:45:28;159566.63;;;17.20;100.00
7940;BME280;4015;48.888;9.226;2023-07-24T00:47:54;159637.19;;;17.48;100.00
7940;BME280;4015;48.888;9.226;2023-07-24T00:50:19;159643.56;;;17.51;100.00
7940;BME280;4015;48.888;9.226;2023-07-24T00:52:45;159612.78;;;17.39;100.00
7940;BME280;4015;48.888;9.226;2023-07-24T00:55:12;159584.56;;;17.27;100.00
7940;BME280;4015;48.888;9.226;2023-07-24T00:57:38;159623.06;;;17.43;100.00
7940;BME280;4015;48.888;9.226;2023-07-24T01:00:04;159634.63;;;17.47;100.00
7940;BME280;4015;48.888;9.226;2023-07-24T01:02:30;159607.69;;;17.37;100.00
7940;BME280;4015;48.888;9.226;2023-07-24T01:04:56;159580.72;;;17.26;100.00
7940;BME280;4015;48.888;9.226;2023-07-24T01:07:21;159534.53;;;17.08;100.00
7940;BME280;4015;48.888;9.226;2023-07-24T01:09:47;159489.66;;;16.90;100.00
7940;BME280;4015;48.888;9.226;2023-07-24T01:12:18;159496.09;;;16.92;100.00
7940;BME280;4015;48.888;9.226;2023-07-24T01:15:00;159547.38;;;17.13;100.00
7940;BME280;4015;48.888;9.226;2023-07-24T01:17:28;159496.09;;;16.92;100.00
7940;BME280;4015;48.888;9.226;2023-07-24T01:19:58;159492.25;;;16.91;100.00
7940;BME280;4015;48.888;9.226;2023-07-24T01:25:09;159505.03;;;16.96;100.00
7940;BME280;4015;48.888;9.226;2023-07-24T01:27:40;159471.72;;;16.83;100.00
7940;BME280;4015;48.888;9.226;2023-07-24T01:30:06;159462.75;;;16.79;100.00
7940;BME280;4015;48.888;9.226;2023-07-24T01:32:32;159457.59;;;16.77;100.00
7940;BME280;4015;48.888;9.226;2023-07-24T01:34:57;159461.50;;;16.79;100.00
7940;BME280;4015;48.888;9.226;2023-07-24T01:37:23;159451.22;;;16.75;100.00
7940;BME280;4015;48.888;9.226;2023-07-24T01:39:50;159447.38;;;16.73;100.00
7940;BME280;4015;48.888;9.226;2023-07-24T01:42:16;159451.22;;;16.75;100.00
7940;BME280;4015;48.888;9.226;2023-07-24T01:44:42;159435.78;;;16.68;100.00
7940;BME280;4015;48.888;9.226;2023-07-24T01:47:07;159438.34;;;16.69;100.00
7940;BME280;4015;48.888;9.226;2023-07-24T01:49:32;159421.66;;;16.63;100.00
7940;BME280;4015;48.888;9.226;2023-07-24T01:51:58;159398.63;;;16.54;100.00
7940;BME280;4015;48.888;9.226;2023-07-24T01:54:23;159437.06;;;16.69;100.00
7940;BME280;4015;48.888;9.226;2023-07-24T01:56:49;159433.22;;;16.67;100.00
7940;BME280;4015;48.888;9.226;2023-07-24T01:59:14;159433.22;;;16.67;100.00
7940;BME280;4015;48.888;9.226;2023-07-24T02:01:39;159440.94;;;16.70;100.00
7940;BME280;4015;48.888;9.226;2023-07-24T02:04:04;159435.78;;;16.68;100.00
7940;BME280;4015;48.888;9.226;2023-07-24T02:06:30;159449.94;;;16.74;100.00
7940;BME280;4015;48.888;9.226;2023-07-24T02:08:55;159456.31;;;16.77;100.00
7940;BME280;4015;48.888;9.226;2023-07-24T02:11:20;159475.56;;;16.84;100.00
7940;BME280;4015;48.888;9.226;2023-07-24T02:13:46;159455.03;;;16.76;100.00
7940;BME280;4015;48.888;9.226;2023-07-24T02:16:12;159470.44;;;16.82;100.00
7940;BME280;4015;48.888;9.226;2023-07-24T02:18:41;159399.88;;;16.54;100.00
7940;BME280;4015;48.888;9.226;2023-07-24T02:21:06;159429.38;;;16.66;100.00
7940;BME280;4015;48.888;9.226;2023-07-24T02:23:32;159464.03;;;16.80;100.00
7940;BME280;4015;48.888;9.226;2023-07-24T02:25:57;159501.22;;;16.94;100.00
7940;BME280;4015;48.888;9.226;2023-07-24T02:28:22;159496.09;;;16.92;100.00
7940;BME280;4015;48.888;9.226;2023-07-24T02:30:48;159502.50;;;16.95;100.00
7940;BME280;4015;48.888;9.226;2023-07-24T02:33:13;159528.16;;;17.05;100.00
7940;BME280;4015;48.888;9.226;2023-07-24T02:35:40;159514.03;;;16.99;100.00
7940;BME280;4015;48.888;9.226;2023-07-24T02:38:06;159488.38;;;16.89;100.00
7940;BME280;4015;48.888;9.226;2023-07-24T02:40:31;159502.50;;;16.95;100.00
7940;BME280;4015;48.888;9.226;2023-07-24T02:42:56;159517.88;;;17.01;100.00
7940;BME280;4015;48.888;9.226;2023-07-24T02:45:22;159526.88;;;17.05;100.00
7940;BME280;4015;48.888;9.226;2023-07-24T02:47:47;159541.00;;;17.10;100.00
7940;BME280;4015;48.888;9.226;2023-07-24T02:50:12;159526.88;;;17.05;100.00
7940;BME280;4015;48.888;9.226;2023-07-24T02:52:37;159530.72;;;17.06;100.00
7940;BME280;4015;48.888;9.226;2023-07-24T02:55:03;159512.78;;;16.99;100.00
7940;BME280;4015;48.888;9.226;2023-07-24T02:57:28;159535.81;;;17.08;100.00
7940;BME280;4015;48.888;9.226;2023-07-24T02:59:54;159534.53;;;17.08;100.00
7940;BME280;4015;48.888;9.226;2023-07-24T03:02:19;159508.94;;;16.97;100.00
7940;BME280;4015;48.888;9.226;2023-07-24T03:04:44;159469.16;;;16.82;100.00
7940;BME280;4015;48.888;9.226;2023-07-24T03:07:10;159467.88;;;16.81;100.00
7940;BME280;4015;48.888;9.226;2023-07-24T03:09:35;159487.09;;;16.89;100.00
7940;BME280;4015;48.888;9.226;2023-07-24T03:12:00;159528.16;;;17.05;100.00
7940;BME280;4015;48.888;9.226;2023-07-24T03:14:26;159526.88;;;17.05;100.00
7940;BME280;4015;48.888;9.226;2023-07-24T03:16:51;159533.28;;;17.07;99.47
7940;BME280;4015;48.888;9.226;2023-07-24T03:19:16;159494.81;;;16.92;99.10
7940;BME280;4015;48.888;9.226;2023-07-24T03:21:42;159467.88;;;16.81;99.12
7940;BME280;4015;48.888;9.226;2023-07-24T03:24:08;159458.88;;;16.78;99.19
7940;BME280;4015;48.888;9.226;2023-07-24T03:26:33;159473.00;;;16.83;98.68
7940;BME280;4015;48.888;9.226;2023-07-24T03:29:00;159456.31;;;16.77;98.57
7940;BME280;4015;48.888;9.226;2023-07-24T03:31:25;159411.41;;;16.59;99.13
7940;BME280;4015;48.888;9.226;2023-07-24T03:33:51;159435.78;;;16.68;100.00
7940;BME280;4015;48.888;9.226;2023-07-24T03:36:16;159451.22;;;16.75;100.00
7940;BME280;4015;48.888;9.226;2023-07-24T03:38:41;159419.13;;;16.62;100.00
7940;BME280;4015;48.888;9.226;2023-07-24T03:41:06;159416.56;;;16.61;100.00
7940;BME280;4015;48.888;9.226;2023-07-24T03:43:32;159414.00;;;16.60;100.00
7940;BME280;4015;48.888;9.226;2023-07-24T03:45:57;159390.91;;;16.51;100.00
7940;BME280;4015;48.888;9.226;2023-07-24T03:48:22;159424.22;;;16.64;100.00
7940;BME280;4015;48.888;9.226;2023-07-24T03:50:50;159422.94;;;16.63;100.00
7940;BME280;4015;48.888;9.226;2023-07-24T03:53:16;159440.94;;;16.70;100.00
7940;BME280;4015;48.888;9.226;2023-07-24T03:55:41;159440.94;;;16.70;100.00
7940;BME280;4015;48.888;9.226;2023-07-24T03:58:06;159442.22;;;16.71;98.99
7940;BME280;4015;48.888;9.226;2023-07-24T04:00:32;159458.88;;;16.78;99.24
7940;BME280;4015;48.888;9.226;2023-07-24T04:02:57;159483.25;;;16.87;97.96
7940;BME280;4015;48.888;9.226;2023-07-24T04:05:22;159549.94;;;17.14;98.12
7940;BME280;4015;48.888;9.226;2023-07-24T04:07:48;159539.72;;;17.10;97.93
7940;BME280;4015;48.888;9.226;2023-07-24T04:10:13;159558.94;;;17.17;98.27
7940;BME280;4015;48.888;9.226;2023-07-24T04:12:38;159587.16;;;17.29;97.76
7940;BME280;4015;48.888;9.226;2023-07-24T04:15:04;159585.84;;;17.28;97.92
7940;BME280;4015;48.888;9.226;2023-07-24T04:17:30;159615.34;;;17.40;97.06
7940;BME280;4015;48.888;9.226;2023-07-24T04:19:55;159630.75;;;17.46;97.27
7940;BME280;4015;48.888;9.226;2023-07-24T04:22:20;159633.28;;;17.47;96.68
7940;BME280;4015;48.888;9.226;2023-07-24T04:24:46;159610.22;;;17.38;94.10
7940;BME280;4015;48.888;9.226;2023-07-24T04:27:11;159646.13;;;17.52;93.57
7940;BME280;4015;48.888;9.226;2023-07-24T04:29:36;159676.94;;;17.64;94.31
7940;BME280;4015;48.888;9.226;2023-07-24T04:32:02;159710.31;;;17.77;95.15
7940;BME280;4015;48.888;9.226;2023-07-24T04:34:27;159682.09;;;17.66;94.25
7940;BME280;4015;48.888;9.226;2023-07-24T04:36:53;159723.16;;;17.83;92.75
7940;BME280;4015;48.888;9.226;2023-07-24T04:39:18;159759.06;;;17.97;92.27
7940;BME280;4015;48.888;9.226;2023-07-24T04:41:43;159782.19;;;18.06;93.14
7940;BME280;4015;48.888;9.226;2023-07-24T04:44:08;159847.63;;;18.32;92.41
7940;BME280;4015;48.888;9.226;2023-07-24T04:46:34;159854.03;;;18.34;92.49
7940;BME280;4015;48.888;9.226;2023-07-24T04:48:59;159854.03;;;18.34;93.51
7940;BME280;4015;48.888;9.226;2023-07-24T04:51:24;159874.59;;;18.43;93.72
7940;BME280;4015;48.888;9.226;2023-07-24T04:53:50;159970.91;;;18.81;92.39
7940;BME280;4015;48.888;9.226;2023-07-24T04:56:15;159936.25;;;18.67;93.07
7940;BME280;4015;48.888;9.226;2023-07-24T04:58:40;159950.34;;;18.73;92.87
7940;BME280;4015;48.888;9.226;2023-07-24T05:01:06;159923.38;;;18.62;93.71
7940;BME280;4015;48.888;9.226;2023-07-24T05:03:32;159951.66;;;18.73;91.72
7940;BME280;4015;48.888;9.226;2023-07-24T05:05:57;159931.03;;;18.65;92.03
7940;BME280;4015;48.888;9.226;2023-07-24T05:08:23;159977.31;;;18.83;91.89
7940;BME280;4015;48.888;9.226;2023-07-24T05:10:54;159994.00;;;18.90;91.51
7940;BME280;4015;48.888;9.226;2023-07-24T05:13:20;159985.03;;;18.86;91.42
7940;BME280;4015;48.888;9.226;2023-07-24T05:15:45;159996.56;;;18.91;92.01
7940;BME280;4015;48.888;9.226;2023-07-24T05:18:11;160045.34;;;19.10;91.36
7940;BME280;4015;48.888;9.226;2023-07-24T05:20:36;160098.00;;;19.31;89.63
7940;BME280;4015;48.888;9.226;2023-07-24T05:23:01;160091.56;;;19.29;89.36
7940;BME280;4015;48.888;9.226;2023-07-24T05:25:27;160071.03;;;19.21;91.44
7940;BME280;4015;48.888;9.226;2023-07-24T05:27:52;160094.19;;;19.30;91.21
7940;BME280;4015;48.888;9.226;2023-07-24T05:30:17;160126.28;;;19.43;89.19
7940;BME280;4015;48.888;9.226;2023-07-24T05:32:43;160112.16;;;19.37;90.76
7940;BME280;4015;48.888;9.226;2023-07-24T05:35:08;160091.56;;;19.29;89.52
7940;BME280;4015;48.888;9.226;2023-07-24T05:37:33;160095.47;;;19.30;88.79
7940;BME280;4015;48.888;9.226;2023-07-24T05:39:58;160113.44;;;19.37;87.96
7940;BME280;4015;48.888;9.226;2023-07-24T05:42:25;160091.56;;;19.29;88.06
7940;BME280;4015;48.888;9.226;2023-07-24T05:44:50;160046.66;;;19.11;87.97
7940;BME280;4015;48.888;9.226;2023-07-24T05:47:16;160092.84;;;19.29;86.84
7940;BME280;4015;48.888;9.226;2023-07-24T05:49:41;160089.00;;;19.28;88.52
7940;BME280;4015;48.888;9.226;2023-07-24T05:52:06;160074.88;;;19.22;88.55
7940;BME280;4015;48.888;9.226;2023-07-24T05:54:32;160046.66;;;19.11;88.96
7940;BME280;4015;48.888;9.226;2023-07-24T05:56:57;160101.84;;;19.33;86.82
7940;BME280;4015;48.888;9.226;2023-07-24T05:59:22;160105.69;;;19.34;85.25
7940;BME280;4015;48.888;9.226;2023-07-24T06:01:48;160091.56;;;19.29;86.15
7940;BME280;4015;48.888;9.226;2023-07-24T06:04:13;160094.19;;;19.30;85.42
7940;BME280;4015;48.888;9.226;2023-07-24T06:06:38;160106.97;;;19.35;86.18
7940;BME280;4015;48.888;9.226;2023-07-24T06:09:05;160101.84;;;19.33;86.33
7940;BME280;4015;48.888;9.226;2023-07-24T06:11:30;160124.94;;;19.42;86.47
7940;BME280;4015;48.888;9.226;2023-07-24T06:13:56;160135.25;;;19.46;85.96
7940;BME280;4015;48.888;9.226;2023-07-24T06:16:21;160182.81;;;19.65;84.73
7940;BME280;4015;48.888;9.226;2023-07-24T06:18:46;160168.66;;;19.59;84.39
7940;BME280;4015;48.888;9.226;2023-07-24T06:21:11;160222.63;;;19.81;84.50
7940;BME280;4015;48.888;9.226;2023-07-24T06:23:37;160216.19;;;19.78;85.10
7940;BME280;4015;48.888;9.226;2023-07-24T06:26:02;160263.72;;;19.97;83.08
7940;BME280;4015;48.888;9.226;2023-07-24T06:28:27;160299.72;;;20.11;82.81
7940;BME280;4015;48.888;9.226;2023-07-24T06:30:54;160297.09;;;20.10;84.00
7940;BME280;4015;48.888;9.226;2023-07-24T06:33:19;160339.53;;;20.27;81.77
7940;BME280;4015;48.888;9.226;2023-07-24T06:35:46;160340.78;;;20.28;84.64
7940;BME280;4015;48.888;9.226;2023-07-24T06:38:12;160419.22;;;20.59;82.21
7940;BME280;4015;48.888;9.226;2023-07-24T06:40:37;160426.97;;;20.62;82.85
7940;BME280;4015;48.888;9.226;2023-07-24T06:43:02;160474.50;;;20.81;81.96
7940;BME280;4015;48.888;9.226;2023-07-24T06:45:28;160514.31;;;20.96;80.86
7940;BME280;4015;48.888;9.226;2023-07-24T06:47:53;160492.50;;;20.88;80.77
7940;BME280;4015;48.888;9.226;2023-07-24T06:50:18;160545.16;;;21.09;78.57
7940;BME280;4015;48.888;9.226;2023-07-24T06:52:44;160567.00;;;21.17;78.48
7940;BME280;4015;48.888;9.226;2023-07-24T06:55:09;160597.91;;;21.30;77.68
7940;BME280;4015;48.888;9.226;2023-07-24T06:57:34;160623.63;;;21.40;76.73
7940;BME280;4015;48.888;9.226;2023-07-24T06:59:59;160624.91;;;21.40;78.30
7940;BME280;4015;48.888;9.226;2023-07-24T07:02:25;160612.03;;;21.35;79.91
7940;BME280;4015;48.888;9.226;2023-07-24T07:04:50;160600.47;;;21.31;81.37
7940;BME280;4015;48.888;9.226;2023-07-24T07:07:15;160601.78;;;21.31;82.63
7940;BME280;4015;48.888;9.226;2023-07-24T07:09:41;160621.06;;;21.39;80.60
7940;BME280;4015;48.888;9.226;2023-07-24T07:12:06;160599.19;;;21.30;81.34
7940;BME280;4015;48.888;9.226;2023-07-24T07:14:32;160632.59;;;21.43;80.73
7940;BME280;4015;48.888;9.226;2023-07-24T07:16:57;160646.75;;;21.49;81.70
7940;BME280;4015;48.888;9.226;2023-07-24T07:19:22;160650.63;;;21.50;80.08
7940;BME280;4015;48.888;9.226;2023-07-24T07:21:47;160645.47;;;21.48;80.23
7940;BME280;4015;48.888;9.226;2023-07-24T07:24:13;160668.63;;;21.58;77.80
7940;BME280;4015;48.888;9.226;2023-07-24T07:26:39;160676.31;;;21.61;80.47
7940;BME280;4015;48.888;9.226;2023-07-24T07:29:04;160635.22;;;21.44;80.91
7940;BME280;4015;48.888;9.226;2023-07-24T07:31:30;160617.22;;;21.37;81.25
7940;BME280;4015;48.888;9.226;2023-07-24T07:33:55;160646.75;;;21.49;80.85
7940;BME280;4015;48.888;9.226;2023-07-24T07:36:20;160662.16;;;21.55;81.25
7940;BME280;4015;48.888;9.226;2023-07-24T07:38:47;160669.91;;;21.58;79.28
7940;BME280;4015;48.888;9.226;2023-07-24T07:41:13;160708.47;;;21.73;79.29
7940;BME280;4015;48.888;9.226;2023-07-24T07:43:38;160738.03;;;21.85;77.26
7940;BME280;4015;48.888;9.226;2023-07-24T07:46:04;160714.91;;;21.76;76.53
7940;BME280;4015;48.888;9.226;2023-07-24T07:48:29;160770.19;;;21.98;75.21
7940;BME280;4015;48.888;9.226;2023-07-24T07:50:54;160756.03;;;21.92;77.92
7940;BME280;4015;48.888;9.226;2023-07-24T07:53:20;160754.75;;;21.92;75.18
7940;BME280;4015;48.888;9.226;2023-07-24T07:55:45;160744.50;;;21.88;75.74
7940;BME280;4015;48.888;9.226;2023-07-24T07:58:10;160752.19;;;21.91;75.84
7940;BME280;4015;48.888;9.226;2023-07-24T08:00:36;160695.59;;;21.68;75.22
7940;BME280;4015;48.888;9.226;2023-07-24T08:03:03;160668.63;;;21.58;76.46
7940;BME280;4015;48.888;9.226;2023-07-24T08:05:28;160663.44;;;21.55;77.97
7940;BME280;4015;48.888;9.226;2023-07-24T08:07:54;160699.50;;;21.70;77.17
7940;BME280;4015;48.888;9.226;2023-07-24T08:10:19;160649.34;;;21.50;79.64
7940;BME280;4015;48.888;9.226;2023-07-24T08:12:44;160651.91;;;21.51;78.92
7940;BME280;4015;48.888;9.226;2023-07-24T08:15:10;160645.47;;;21.48;78.59
7940;BME280;4015;48.888;9.226;2023-07-24T08:17:35;160603.06;;;21.32;80.77
7940;BME280;4015;48.888;9.226;2023-07-24T08:20:01;160561.88;;;21.15;82.06
7940;BME280;4015;48.888;9.226;2023-07-24T08:22:26;160576.00;;;21.21;84.39
7940;BME280;4015;48.888;9.226;2023-07-24T08:24:52;160468.03;;;20.78;83.80
7940;BME280;4015;48.888;9.226;2023-07-24T08:27:17;160478.34;;;20.82;84.86
7940;BME280;4015;48.888;9.226;2023-07-24T08:29:43;160417.94;;;20.58;85.88
7940;BME280;4015;48.888;9.226;2023-07-24T08:32:08;160340.78;;;20.28;89.37
7940;BME280;4015;48.888;9.226;2023-07-24T08:34:33;160286.88;;;20.06;88.99
7940;BME280;4015;48.888;9.226;2023-07-24T08:36:59;160294.53;;;20.09;91.16
7940;BME280;4015;48.888;9.226;2023-07-24T08:39:24;160291.97;;;20.08;92.84
7940;BME280;4015;48.888;9.226;2023-07-24T08:41:49;160304.84;;;20.13;92.34
7940;BME280;4015;48.888;9.226;2023-07-24T08:44:15;160322.81;;;20.20;95.14
7940;BME280;4015;48.888;9.226;2023-07-24T08:46:41;160344.63;;;20.29;94.08
7940;BME280;4015;48.888;9.226;2023-07-24T08:49:14;160347.25;;;20.30;94.91
7940;BME280;4015;48.888;9.226;2023-07-24T08:51:41;160354.94;;;20.33;95.13
7940;BME280;4015;48.888;9.226;2023-07-24T08:54:08;160398.69;;;20.51;95.60
7940;BME280;4015;48.888;9.226;2023-07-24T08:56:33;160419.22;;;20.59;94.62
7940;BME280;4015;48.888;9.226;2023-07-24T08:58:59;160455.19;;;20.73;96.35
7940;BME280;4015;48.888;9.226;2023-07-24T09:01:24;160460.38;;;20.75;97.07
7940;BME280;4015;48.888;9.226;2023-07-24T09:03:50;160502.75;;;20.92;94.18
7940;BME280;4015;48.888;9.226;2023-07-24T09:06:15;160610.75;;;21.35;94.12
7940;BME280;4015;48.888;9.226;2023-07-24T09:08:42;160717.47;;;21.77;94.12
7940;BME280;4015;48.888;9.226;2023-07-24T09:11:09;160772.75;;;21.99;93.81
7940;BME280;4015;48.888;9.226;2023-07-24T09:13:36;160844.84;;;22.27;91.42
7940;BME280;4015;48.888;9.226;2023-07-24T09:16:01;160901.41;;;22.50;91.39
7940;BME280;4015;48.888;9.226;2023-07-24T09:18:38;161072.56;;;23.18;87.75
7940;BME280;4015;48.888;9.226;2023-07-24T09:21:04;161200.00;;;23.68;84.20
7940;BME280;4015;48.888;9.226;2023-07-24T09:23:29;161449.81;;;24.67;82.58
7940;BME280;4015;48.888;9.226;2023-07-24T09:25:55;161591.50;;;25.23;78.04
7940;BME280;4015;48.888;9.226;2023-07-24T09:28:20;161564.44;;;25.12;77.41
7940;BME280;4015;48.888;9.226;2023-07-24T09:30:56;161539.97;;;25.02;74.52
7940;BME280;4015;48.888;9.226;2023-07-24T09:33:36;161608.25;;;25.29;78.92
7940;BME280;4015;48.888;9.226;2023-07-24T09:36:06;161770.59;;;25.94;74.52
7940;BME280;4015;48.888;9.226;2023-07-24T09:38:39;161777.06;;;25.96;70.46
7940;BME280;4015;48.888;9.226;2023-07-24T09:41:05;161564.44;;;25.12;71.56
7940;BME280;4015;48.888;9.226;2023-07-24T09:43:31;161538.69;;;25.02;72.34
7940;BME280;4015;48.888;9.226;2023-07-24T09:45:57;161465.25;;;24.73;73.56
7940;BME280;4015;48.888;9.226;2023-07-24T09:48:24;161417.63;;;24.54;74.85
7940;BME280;4015;48.888;9.226;2023-07-24T09:50:58;161412.47;;;24.52;75.55
7940;BME280;4015;48.888;9.226;2023-07-24T09:53:47;161408.56;;;24.51;76.11
7940;BME280;4015;48.888;9.226;2023-07-24T09:56:17;161368.69;;;24.35;78.88
7940;BME280;4015;48.888;9.226;2023-07-24T09:58:44;161319.72;;;24.15;77.85
7940;BME280;4015;48.888;9.226;2023-07-24T10:01:10;161275.94;;;23.98;80.82
7940;BME280;4015;48.888;9.226;2023-07-24T10:03:40;161183.28;;;23.61;83.51
7940;BME280;4015;48.888;9.226;2023-07-24T10:06:05;161152.34;;;23.49;83.56
7940;BME280;4015;48.888;9.226;2023-07-24T10:08:31;161139.44;;;23.44;81.29
7940;BME280;4015;48.888;9.226;2023-07-24T10:10:58;161117.59;;;23.35;80.49
7940;BME280;4015;48.888;9.226;2023-07-24T10:13:26;161126.63;;;23.39;81.11
7940;BME280;4015;48.888;9.226;2023-07-24T10:15:52;161094.47;;;23.26;81.63
7940;BME280;4015;48.888;9.226;2023-07-24T10:18:17;161075.13;;;23.19;82.46
7940;BME280;4015;48.888;9.226;2023-07-24T10:21:08;161008.22;;;22.92;81.79
7940;BME280;4015;48.888;9.226;2023-07-24T10:23:44;160941.28;;;22.66;83.67
7940;BME280;4015;48.888;9.226;2023-07-24T10:26:11;160874.41;;;22.39;85.54
7940;BME280;4015;48.888;9.226;2023-07-24T10:28:38;160883.41;;;22.43;85.20
7940;BME280;4015;48.888;9.226;2023-07-24T10:31:06;160843.56;;;22.27;85.65
7940;BME280;4015;48.888;9.226;2023-07-24T10:33:35;160815.25;;;22.16;85.38
7940;BME280;4015;48.888;9.226;2023-07-24T10:36:07;160837.09;;;22.24;85.18
7940;BME280;4015;48.888;9.226;2023-07-24T10:38:40;160781.78;;;22.02;86.73
7940;BME280;4015;48.888;9.226;2023-07-24T10:41:07;160747.06;;;21.89;88.50
7940;BME280;4015;48.888;9.226;2023-07-24T10:46:05;160648.03;;;21.49;90.83
7940;BME280;4015;48.888;9.226;2023-07-24T10:48:30;160637.78;;;21.45;91.37
7940;BME280;4015;48.888;9.226;2023-07-24T10:50:56;160632.59;;;21.43;91.84
7940;BME280;4015;48.888;9.226;2023-07-24T10:53:22;160578.56;;;21.22;93.93
7940;BME280;4015;48.888;9.226;2023-07-24T10:55:47;160542.59;;;21.08;94.65
7940;BME280;4015;48.888;9.226;2023-07-24T10:58:14;160502.75;;;20.92;97.35
7940;BME280;4015;48.888;9.226;2023-07-24T11:00:40;160456.47;;;20.73;97.21
7940;BME280;4015;48.888;9.226;2023-07-24T11:03:09;160397.41;;;20.50;96.98
7940;BME280;4015;48.888;9.226;2023-07-24T11:05:39;160380.66;;;20.43;99.42
7940;BME280;4015;48.888;9.226;2023-07-24T11:08:11;160325.38;;;20.21;99.31
7940;BME280;4015;48.888;9.226;2023-07-24T11:10:51;160291.97;;;20.08;100.00
7940;BME280;4015;48.888;9.226;2023-07-24T11:13:19;160263.72;;;19.97;100.00
7940;BME280;4015;48.888;9.226;2023-07-24T11:15:46;160239.34;;;19.87;100.00
7940;BME280;4015;48.888;9.226;2023-07-24T11:18:11;160252.19;;;19.92;100.00
7940;BME280;4015;48.888;9.226;2023-07-24T11:20:51;160202.06;;;19.73;100.00
7940;BME280;4015;48.888;9.226;2023-07-24T11:23:17;160214.91;;;19.78;100.00
7940;BME280;4015;48.888;9.226;2023-07-24T11:25:43;160222.63;;;19.81;100.00
7940;BME280;4015;48.888;9.226;2023-07-24T11:28:11;160238.06;;;19.87;100.00
7940;BME280;4015;48.888;9.226;2023-07-24T11:30:36;160214.91;;;19.78;100.00
7940;BME280;4015;48.888;9.226;2023-07-24T11:33:04;160247.00;;;19.90;100.00
7940;BME280;4015;48.888;9.226;2023-07-24T11:35:30;160265.00;;;19.98;100.00
7940;BME280;4015;48.888;9.226;2023-07-24T11:37:56;160270.16;;;20.00;100.00
7940;BME280;4015;48.888;9.226;2023-07-24T11:40:39;160279.13;;;20.03;100.00
7940;BME280;4015;48.888;9.226;2023-07-24T11:43:18;160326.66;;;20.22;100.00
7940;BME280;4015;48.888;9.226;2023-07-24T11:45:44;160421.78;;;20.60;100.00
7940;BME280;4015;48.888;9.226;2023-07-24T11:48:11;160842.28;;;22.26;98.06
7940;BME280;4015;48.888;9.226;2023-07-24T11:51:03;161062.28;;;23.13;93.43
7940;BME280;4015;48.888;9.226;2023-07-24T11:53:30;161098.31;;;23.28;88.98
7940;BME280;4015;48.888;9.226;2023-07-24T11:55:59;161095.75;;;23.27;87.86
7940;BME280;4015;48.888;9.226;2023-07-24T11:58:29;160916.84;;;22.56;88.98
7940;BME280;4015;48.888;9.226;2023-07-24T12:00:55;160779.22;;;22.01;89.04
7940;BME280;4015;48.888;9.226;2023-07-24T12:03:23;160668.63;;;21.58;90.65
7940;BME280;4015;48.888;9.226;2023-07-24T12:05:49;160640.34;;;21.46;93.33
7940;BME280;4015;48.888;9.226;2023-07-24T12:08:16;160518.16;;;20.98;92.81
7940;BME280;4015;48.888;9.226;2023-07-24T12:10:43;160513.03;;;20.96;93.68
7940;BME280;4015;48.888;9.226;2023-07-24T12:13:08;160430.81;;;20.63;94.51
7940;BME280;4015;48.888;9.226;2023-07-24T12:15:34;160375.47;;;20.41;96.27
7940;BME280;4015;48.888;9.226;2023-07-24T12:18:01;160352.38;;;20.32;97.24
7940;BME280;4015;48.888;9.226;2023-07-24T12:20:27;160358.78;;;20.35;95.46
7940;BME280;4015;48.888;9.226;2023-07-24T12:22:52;160388.38;;;20.46;95.41
7940;BME280;4015;48.888;9.226;2023-07-24T12:25:19;160387.09;;;20.46;95.16
7940;BME280;4015;48.888;9.226;2023-07-24T12:27:45;160360.06;;;20.35;94.35
7940;BME280;4015;48.888;9.226;2023-07-24T12:30:11;160361.34;;;20.36;95.05
7940;BME280;4015;48.888;9.226;2023-07-24T12:32:36;160327.94;;;20.23;95.49
7940;BME280;4015;48.888;9.226;2023-07-24T12:35:01;160344.63;;;20.29;96.96
7940;BME280;4015;48.888;9.226;2023-07-24T12:37:27;160298.38;;;20.11;94.27
7940;BME280;4015;48.888;9.226;2023-07-24T12:39:53;160252.19;;;19.92;98.27
7940;BME280;4015;48.888;9.226;2023-07-24T12:42:18;160239.34;;;19.87;100.00
7940;BME280;4015;48.888;9.226;2023-07-24T12:44:44;160294.53;;;20.09;100.00
7940;BME280;4015;48.888;9.226;2023-07-24T12:47:10;160330.50;;;20.24;100.00
7940;BME280;4015;48.888;9.226;2023-07-24T12:49:36;160299.72;;;20.11;98.91
7940;BME280;4015;48.888;9.226;2023-07-24T12:52:02;160280.41;;;20.04;99.10
7940;BME280;4015;48.888;9.226;2023-07-24T12:54:27;160301.00;;;20.12;99.26
7940;BME280;4015;48.888;9.226;2023-07-24T12:56:53;160338.25;;;20.27;97.85
7940;BME280;4015;48.888;9.226;2023-07-24T12:59:18;160375.47;;;20.41;99.42
7940;BME280;4015;48.888;9.226;2023-07-24T13:01:44;160414.09;;;20.57;97.53
7940;BME280;4015;48.888;9.226;2023-07-24T13:04:09;160478.34;;;20.82;96.40
7940;BME280;4015;48.888;9.226;2023-07-24T13:06:35;160465.47;;;20.77;96.13
7940;BME280;4015;48.888;9.226;2023-07-24T13:09:01;160462.94;;;20.76;96.34